sensor_id;sensor_type;location;lat;lon;timestamp;temperature;humidity
16172;DHT22;8192;53.596;10.166;2022-07-29T00:01:26;11.10;99.90
16172;DHT22;8192;53.596;10.166;2022-07-29T00:03:53;10.90;99.90
16172;DHT22;8192;53.596;10.166;2022-07-29T00:06:20;10.70;99.90
16172;DHT22;8192;53.596;10.166;2022-07-29T00:08:48;10.50;99.90
16172;DHT22;8192;53.596;10.166;2022-07-29T00:11:15;10.40;99.90
16172;DHT22;8192;53.596;10.166;2022-07-29T00:13:42;10.30;99.90
16172;DHT22;8192;53.596;10.166;2022-07-29T00:16:09;10.20;99.90
16172;DHT22;8192;53.596;10.166;2022-07-29T00:18:36;10.10;99.90
16172;DHT22;8192;53.596;10.166;2022-07-29T00:21:02;10.10;99.90
16172;DHT22;8192;53.596;10.166;2022-07-29T00:23:29;10.00;99.90
16172;DHT22;8192;53.596;10.166;2022-07-29T00:25:58;9.90;99.90
16172;DHT22;8192;53.596;10.166;2022-07-29T00:28:24;9.90;99.90
16172;DHT22;8192;53.596;10.166;2022-07-29T00:30:51;10.00;99.90
16172;DHT22;8192;53.596;10.166;2022-07-29T00:33:18;9.90;99.90
16172;DHT22;8192;53.596;10.166;2022-07-29T00:35:45;9.90;99.90
16172;DHT22;8192;53.596;10.166;2022-07-29T00:38:11;9.90;99.90
16172;DHT22;8192;53.596;10.166;2022-07-29T00:40:38;9.70;99.90
16172;DHT22;8192;53.596;10.166;2022-07-29T00:43:06;9.80;99.90
16172;DHT22;8192;53.596;10.166;2022-07-29T00:45:33;9.80;99.90
16172;DHT22;8192;53.596;10.166;2022-07-29T00:48:00;9.80;99.90
16172;DHT22;8192;53.596;10.166;2022-07-29T00:50:27;9.70;99.90
16172;DHT22;8192;53.596;10.166;2022-07-29T00:52:54;9.70;99.90
16172;DHT22;8192;53.596;10.166;2022-07-29T00:55:20;9.70;99.90
16172;DHT22;8192;53.596;10.166;2022-07-29T00:57:47;9.60;99.90
16172;DHT22;8192;53.596;10.166;2022-07-29T01:00:16;9.50;99.90
16172;DHT22;8192;53.596;10.166;2022-07-29T01:02:43;9.50;99.90
16172;DHT22;8192;53.596;10.166;2022-07-29T01:05:10;9.50;99.90
16172;DHT22;8192;53.596;10.166;2022-07-29T01:07:37;9.60;99.90
16172;DHT22;8192;53.596;10.166;2022-07-29T01:10:06;9.60;99.90
16172;DHT22;8192;53.596;10.166;2022-07-29T01:12:34;9.60;99.90
16172;DHT22;8192;53.596;10.166;2022-07-29T01:15:02;9.60;99.90
16172;DHT22;8192;53.596;10.166;2022-07-29T01:17:32;9.60;99.90
16172;DHT22;8192;53.596;10.166;2022-07-29T01:20:02;9.60;99.90
16172;DHT22;8192;53.596;10.166;2022-07-29T01:28:51;9.70;99.90
16172;DHT22;8192;53.596;10.166;2022-07-29T01:31:20;9.70;99.90
16172;DHT22;8192;53.596;10.166;2022-07-29T01:33:50;9.90;99.90
16172;DHT22;8192;53.596;10.166;2022-07-29T01:36:18;10.10;99.90
16172;DHT22;8192;53.596;10.166;2022-07-29T01:38:48;10.20;99.90
16172;DHT22;8192;53.596;10.166;2022-07-29T01:41:17;10.30;99.90
16172;DHT22;8192;53.596;10.166;2022-07-29T01:43:49;10.40;99.90
16172;DHT22;8192;53.596;10.166;2022-07-29T01:46:20;10.40;99.90
16172;DHT22;8192;53.596;10.166;2022-07-29T01:48:47;10.50;99.90
16172;DHT22;8192;53.596;10.166;2022-07-29T01:51:16;10.60;99.90
16172;DHT22;8192;53.596;10.166;2022-07-29T01:53:46;10.70;99.90
16172;DHT22;8192;53.596;10.166;2022-07-29T01:56:14;10.90;99.90
16172;DHT22;8192;53.596;10.166;2022-07-29T01:58:43;10.90;99.90
16172;DHT22;8192;53.596;10.166;2022-07-29T02:01:12;11.00;99.90
16172;DHT22;8192;53.596;10.166;2022-07-29T02:03:39;10.90;99.90
16172;DHT22;8192;53.596;10.166;2022-07-29T02:06:09;10.90;99.90
16172;DHT22;8192;53.596;10.166;2022-07-29T02:08:37;11.00;99.90
16172;DHT22;8192;53.596;10.166;2022-07-29T02:11:04;11.00;99.90
16172;DHT22;8192;53.596;10.166;2022-07-29T02:13:32;11.10;99.90
16172;DHT22;8192;53.596;10.166;2022-07-29T02:16:00;11.20;99.90
16172;DHT22;8192;53.596;10.166;2022-07-29T02:18:30;11.20;99.90
16172;DHT22;8192;53.596;10.166;2022-07-29T02:20:58;11.40;99.90
16172;DHT22;8192;53.596;10.166;2022-07-29T02:23:25;11.30;99.90
16172;DHT22;8192;53.596;10.166;2022-07-29T02:25:53;11.20;99.90
16172;DHT22;8192;53.596;10.166;2022-07-29T02:28:20;11.20;99.90
16172;DHT22;8192;53.596;10.166;2022-07-29T02:30:48;11.20;99.90
16172;DHT22;8192;53.596;10.166;2022-07-29T02:33:16;11.20;99.90
16172;DHT22;8192;53.596;10.166;2022-07-29T02:35:46;11.20;99.90
16172;DHT22;8192;53.596;10.166;2022-07-29T02:38:14;11.20;99.90
16172;DHT22;8192;53.596;10.166;2022-07-29T02:40:58;11.20;99.90
16172;DHT22;8192;53.596;10.166;2022-07-29T02:43:26;11.10;99.90
16172;DHT22;8192;53.596;10.166;2022-07-29T02:45:54;11.20;99.90
16172;DHT22;8192;53.596;10.166;2022-07-29T02:48:22;11.20;99.90
16172;DHT22;8192;53.596;10.166;2022-07-29T02:50:56;11.30;99.90
16172;DHT22;8192;53.596;10.166;2022-07-29T02:53:27;11.20;99.90
16172;DHT22;8192;53.596;10.166;2022-07-29T02:55:57;11.30;99.90
16172;DHT22;8192;53.596;10.166;2022-07-29T02:58:27;11.30;99.90
16172;DHT22;8192;53.596;10.166;2022-07-29T03:00:54;11.30;99.90
16172;DHT22;8192;53.596;10.166;2022-07-29T03:03:21;11.40;99.90
16172;DHT22;8192;53.596;10.166;2022-07-29T03:05:48;11.40;99.90
16172;DHT22;8192;53.596;10.166;2022-07-29T03:08:17;11.40;99.90
16172;DHT22;8192;53.596;10.166;2022-07-29T03:10:44;11.30;99.90
16172;DHT22;8192;53.596;10.166;2022-07-29T03:13:12;11.30;99.90
16172;DHT22;8192;53.596;10.166;2022-07-29T03:15:39;11.40;99.90
16172;DHT22;8192;53.596;10.166;2022-07-29T03:18:08;11.40;99.90
16172;DHT22;8192;53.596;10.166;2022-07-29T03:20:36;11.50;99.90
16172;DHT22;8192;53.596;10.166;2022-07-29T03:23:03;11.50;99.90
16172;DHT22;8192;53.596;10.166;2022-07-29T03:25:32;11.50;99.90
16172;DHT22;8192;53.596;10.166;2022-07-29T03:27:59;11.60;99.90
16172;DHT22;8192;53.596;10.166;2022-07-29T03:30:26;11.60;99.90
16172;DHT22;8192;53.596;10.166;2022-07-29T03:32:55;11.70;99.90
16172;DHT22;8192;53.596;10.166;2022-07-29T03:35:22;11.80;99.90
16172;DHT22;8192;53.596;10.166;2022-07-29T03:37:49;11.80;99.90
16172;DHT22;8192;53.596;10.166;2022-07-29T03:40:18;11.90;99.90
16172;DHT22;8192;53.596;10.166;2022-07-29T03:42:47;12.00;99.90
16172;DHT22;8192;53.596;10.166;2022-07-29T03:45:17;12.00;99.90
16172;DHT22;8192;53.596;10.166;2022-07-29T03:47:45;12.00;99.90
16172;DHT22;8192;53.596;10.166;2022-07-29T03:50:14;12.00;99.90
16172;DHT22;8192;53.596;10.166;2022-07-29T03:52:41;12.00;99.90
16172;DHT22;8192;53.596;10.166;2022-07-29T03:55:09;12.00;99.90
16172;DHT22;8192;53.596;10.166;2022-07-29T03:57:35;12.00;99.90
16172;DHT22;8192;53.596;10.166;2022-07-29T04:00:06;12.10;99.90
16172;DHT22;8192;53.596;10.166;2022-07-29T04:02:33;12.10;99.90
16172;DHT22;8192;53.596;10.166;2022-07-29T04:05:00;12.20;99.90
16172;DHT22;8192;53.596;10.166;2022-07-29T04:07:26;12.20;99.90
16172;DHT22;8192;53.596;10.166;2022-07-29T04:09:54;12.30;99.90
16172;DHT22;8192;53.596;10.166;2022-07-29T04:12:21;12.30;99.90
16172;DHT22;8192;53.596;10.166;2022-07-29T04:14:47;12.30;99.90
16172;DHT22;8192;53.596;10.166;2022-07-29T04:17:17;12.40;99.90
16172;DHT22;8192;53.596;10.166;2022-07-29T04:19:45;12.50;99.90
16172;DHT22;8192;53.596;10.166;2022-07-29T04:22:12;12.50;99.90
16172;DHT22;8192;53.596;10.166;2022-07-29T04:24:39;12.50;99.90
16172;DHT22;8192;53.596;10.166;2022-07-29T04:27:06;12.50;99.90
16172;DHT22;8192;53.596;10.166;2022-07-29T04:29:32;12.60;99.90
16172;DHT22;8192;53.596;10.166;2022-07-29T04:31:59;12.80;99.90
16172;DHT22;8192;53.596;10.166;2022-07-29T04:34:28;12.80;99.90
16172;DHT22;8192;53.596;10.166;2022-07-29T04:36:56;12.90;99.90
16172;DHT22;8192;53.596;10.166;2022-07-29T04:39:23;13.00;99.90
16172;DHT22;8192;53.596;10.166;2022-07-29T04:41:50;13.00;99.90
16172;DHT22;8192;53.596;10.166;2022-07-29T04:44:17;13.10;99.90
16172;DHT22;8192;53.596;10.166;2022-07-29T04:46:44;13.20;99.90
16172;DHT22;8192;53.596;10.166;2022-07-29T04:49:10;13.30;99.90
16172;DHT22;8192;53.596;10.166;2022-07-29T04:51:39;13.40;99.90
16172;DHT22;8192;53.596;10.166;2022-07-29T04:54:06;13.40;99.90
16172;DHT22;8192;53.596;10.166;2022-07-29T04:56:39;13.60;99.90
16172;DHT22;8192;53.596;10.166;2022-07-29T04:59:06;13.80;99.90
16172;DHT22;8192;53.596;10.166;2022-07-29T05:01:34;14.20;99.90
16172;DHT22;8192;53.596;10.166;2022-07-29T05:04:01;14.70;99.90
16172;DHT22;8192;53.596;10.166;2022-07-29T05:06:27;15.10;99.90
16172;DHT22;8192;53.596;10.166;2022-07-29T05:08:57;15.50;99.90
16172;DHT22;8192;53.596;10.166;2022-07-29T05:11:24;15.60;99.90
16172;DHT22;8192;53.596;10.166;2022-07-29T05:13:51;15.60;99.90
16172;DHT22;8192;53.596;10.166;2022-07-29T05:16:18;15.60;99.90
16172;DHT22;8192;53.596;10.166;2022-07-29T05:18:44;15.60;99.90
16172;DHT22;8192;53.596;10.166;2022-07-29T05:21:11;15.80;99.90
16172;DHT22;8192;53.596;10.166;2022-07-29T05:23:38;16.00;99.90
16172;DHT22;8192;53.596;10.166;2022-07-29T05:26:06;16.20;99.90
16172;DHT22;8192;53.596;10.166;2022-07-29T05:28:33;16.70;99.90
16172;DHT22;8192;53.596;10.166;2022-07-29T05:31:00;17.30;99.90
16172;DHT22;8192;53.596;10.166;2022-07-29T05:33:27;17.70;99.90
16172;DHT22;8192;53.596;10.166;2022-07-29T05:35:53;18.00;99.90
16172;DHT22;8192;53.596;10.166;2022-07-29T05:38:20;18.70;99.90
16172;DHT22;8192;53.596;10.166;2022-07-29T05:40:47;19.20;99.90
16172;DHT22;8192;53.596;10.166;2022-07-29T05:43:15;19.50;99.90
16172;DHT22;8192;53.596;10.166;2022-07-29T05:45:42;19.30;99.90
16172;DHT22;8192;53.596;10.166;2022-07-29T05:48:09;18.80;99.90
16172;DHT22;8192;53.596;10.166;2022-07-29T05:50:37;18.10;99.90
16172;DHT22;8192;53.596;10.166;2022-07-29T05:53:03;17.50;99.90
16172;DHT22;8192;53.596;10.166;2022-07-29T05:55:30;17.20;99.90
16172;DHT22;8192;53.596;10.166;2022-07-29T05:57:57;17.20;99.90
16172;DHT22;8192;53.596;10.166;2022-07-29T06:00:25;17.10;99.90
16172;DHT22;8192;53.596;10.166;2022-07-29T06:02:52;17.00;99.90
16172;DHT22;8192;53.596;10.166;2022-07-29T06:05:19;16.90;99.90
16172;DHT22;8192;53.596;10.166;2022-07-29T06:07:46;18.10;99.90
16172;DHT22;8192;53.596;10.166;2022-07-29T06:10:13;20.00;99.90
16172;DHT22;8192;53.596;10.166;2022-07-29T06:12:40;21.10;99.90
16172;DHT22;8192;53.596;10.166;2022-07-29T06:15:07;21.60;99.90
16172;DHT22;8192;53.596;10.166;2022-07-29T06:17:36;21.40;99.90
16172;DHT22;8192;53.596;10.166;2022-07-29T06:20:05;20.20;99.90
16172;DHT22;8192;53.596;10.166;2022-07-29T06:22:32;19.80;99.90
16172;DHT22;8192;53.596;10.166;2022-07-29T06:25:00;19.80;99.90
16172;DHT22;8192;53.596;10.166;2022-07-29T06:27:27;19.80;99.90
16172;DHT22;8192;53.596;10.166;2022-07-29T06:32:41;19.70;99.90
16172;DHT22;8192;53.596;10.166;2022-07-29T06:35:08;19.40;99.90
16172;DHT22;8192;53.596;10.166;2022-07-29T06:37:35;19.30;99.90
16172;DHT22;8192;53.596;10.166;2022-07-29T06:40:03;19.30;99.90
16172;DHT22;8192;53.596;10.166;2022-07-29T06:42:47;19.60;99.90
16172;DHT22;8192;53.596;10.166;2022-07-29T06:45:14;19.60;99.90
16172;DHT22;8192;53.596;10.166;2022-07-29T06:47:42;19.70;99.90
16172;DHT22;8192;53.596;10.166;2022-07-29T06:50:11;19.70;99.90
16172;DHT22;8192;53.596;10.166;2022-07-29T06:52:39;19.80;99.90
16172;DHT22;8192;53.596;10.166;2022-07-29T06:55:06;20.80;99.90
16172;DHT22;8192;53.596;10.166;2022-07-29T06:57:34;21.50;99.90
16172;DHT22;8192;53.596;10.166;2022-07-29T07:00:00;21.50;99.90
16172;DHT22;8192;53.596;10.166;2022-07-29T07:02:30;21.50;99.90
16172;DHT22;8192;53.596;10.166;2022-07-29T07:04:58;20.90;99.90
16172;DHT22;8192;53.596;10.166;2022-07-29T07:07:26;20.40;99.90
16172;DHT22;8192;53.596;10.166;2022-07-29T07:09:52;20.30;99.90
16172;DHT22;8192;53.596;10.166;2022-07-29T07:12:19;20.30;99.90
16172;DHT22;8192;53.596;10.166;2022-07-29T07:14:46;20.40;99.90
16172;DHT22;8192;53.596;10.166;2022-07-29T07:17:13;20.20;99.90
16172;DHT22;8192;53.596;10.166;2022-07-29T07:19:40;19.80;99.90
16172;DHT22;8192;53.596;10.166;2022-07-29T07:22:08;19.80;99.90
16172;DHT22;8192;53.596;10.166;2022-07-29T07:24:35;19.70;99.90
16172;DHT22;8192;53.596;10.166;2022-07-29T07:27:02;19.60;99.90
16172;DHT22;8192;53.596;10.166;2022-07-29T07:29:29;19.50;99.90
16172;DHT22;8192;53.596;10.166;2022-07-29T07:31:57;19.50;99.90
16172;DHT22;8192;53.596;10.166;2022-07-29T07:34:23;19.40;99.90
16172;DHT22;8192;53.596;10.166;2022-07-29T07:39:47;19.10;99.90
16172;DHT22;8192;53.596;10.166;2022-07-29T07:42:14;19.20;99.90
16172;DHT22;8192;53.596;10.166;2022-07-29T07:44:41;19.50;99.90
16172;DHT22;8192;53.596;10.166;2022-07-29T07:47:07;19.70;99.90
16172;DHT22;8192;53.596;10.166;2022-07-29T07:52:11;20.30;99.90
16172;DHT22;8192;53.596;10.166;2022-07-29T07:54:37;20.40;98.40
16172;DHT22;8192;53.596;10.166;2022-07-29T07:57:06;20.60;99.90
16172;DHT22;8192;53.596;10.166;2022-07-29T07:59:32;20.50;95.90
16172;DHT22;8192;53.596;10.166;2022-07-29T08:01:59;20.50;95.90
16172;DHT22;8192;53.596;10.166;2022-07-29T08:04:27;20.60;94.60
16172;DHT22;8192;53.596;10.166;2022-07-29T08:06:54;20.40;94.30
16172;DHT22;8192;53.596;10.166;2022-07-29T08:09:22;20.20;93.90
16172;DHT22;8192;53.596;10.166;2022-07-29T08:11:49;20.20;99.70
16172;DHT22;8192;53.596;10.166;2022-07-29T08:14:17;20.30;97.00
16172;DHT22;8192;53.596;10.166;2022-07-29T08:16:45;20.60;92.50
16172;DHT22;8192;53.596;10.166;2022-07-29T08:19:12;20.40;90.80
16172;DHT22;8192;53.596;10.166;2022-07-29T08:21:41;20.50;93.90
16172;DHT22;8192;53.596;10.166;2022-07-29T08:24:08;21.00;92.30
16172;DHT22;8192;53.596;10.166;2022-07-29T08:26:52;21.10;87.50
16172;DHT22;8192;53.596;10.166;2022-07-29T08:29:21;21.50;91.60
16172;DHT22;8192;53.596;10.166;2022-07-29T08:31:47;21.40;85.60
16172;DHT22;8192;53.596;10.166;2022-07-29T08:34:14;21.40;83.10
16172;DHT22;8192;53.596;10.166;2022-07-29T08:36:41;21.50;83.20
16172;DHT22;8192;53.596;10.166;2022-07-29T08:39:08;21.60;78.80
16172;DHT22;8192;53.596;10.166;2022-07-29T08:41:35;21.40;80.30
16172;DHT22;8192;53.596;10.166;2022-07-29T08:44:03;21.50;81.40
16172;DHT22;8192;53.596;10.166;2022-07-29T08:46:31;21.70;82.80
16172;DHT22;8192;53.596;10.166;2022-07-29T08:48:58;21.90;83.50
16172;DHT22;8192;53.596;10.166;2022-07-29T08:51:26;22.20;77.30
16172;DHT22;8192;53.596;10.166;2022-07-29T08:53:54;22.10;75.00
16172;DHT22;8192;53.596;10.166;2022-07-29T08:56:22;21.90;71.70
16172;DHT22;8192;53.596;10.166;2022-07-29T08:58:57;21.60;73.80
16172;DHT22;8192;53.596;10.166;2022-07-29T09:01:24;21.50;77.30
16172;DHT22;8192;53.596;10.166;2022-07-29T09:03:54;21.40;71.70
16172;DHT22;8192;53.596;10.166;2022-07-29T09:06:21;21.60;72.00
16172;DHT22;8192;53.596;10.166;2022-07-29T09:08:48;21.90;80.80
16172;DHT22;8192;53.596;10.166;2022-07-29T09:11:15;22.10;71.50
16172;DHT22;8192;53.596;10.166;2022-07-29T09:13:43;22.40;68.80
16172;DHT22;8192;53.596;10.166;2022-07-29T09:16:22;22.50;65.60
16172;DHT22;8192;53.596;10.166;2022-07-29T09:18:49;22.60;62.70
16172;DHT22;8192;53.596;10.166;2022-07-29T09:21:17;22.50;56.90
16172;DHT22;8192;53.596;10.166;2022-07-29T09:24:02;22.40;59.80
16172;DHT22;8192;53.596;10.166;2022-07-29T09:26:29;22.70;61.40
16172;DHT22;8192;53.596;10.166;2022-07-29T09:28:57;22.80;60.30
16172;DHT22;8192;53.596;10.166;2022-07-29T09:31:32;22.80;57.50
16172;DHT22;8192;53.596;10.166;2022-07-29T09:33:59;22.70;54.90
16172;DHT22;8192;53.596;10.166;2022-07-29T09:36:28;22.60;55.60
16172;DHT22;8192;53.596;10.166;2022-07-29T09:38:57;22.60;55.50
16172;DHT22;8192;53.596;10.166;2022-07-29T09:41:25;22.70;57.90
16172;DHT22;8192;53.596;10.166;2022-07-29T09:43:55;22.90;50.80
16172;DHT22;8192;53.596;10.166;2022-07-29T09:46:23;23.10;49.80
16172;DHT22;8192;53.596;10.166;2022-07-29T09:49:05;23.00;46.00
16172;DHT22;8192;53.596;10.166;2022-07-29T09:51:33;23.20;47.50
16172;DHT22;8192;53.596;10.166;2022-07-29T09:54:05;23.40;44.50
16172;DHT22;8192;53.596;10.166;2022-07-29T09:56:47;23.30;45.60
16172;DHT22;8192;53.596;10.166;2022-07-29T09:59:14;23.60;48.20
16172;DHT22;8192;53.596;10.166;2022-07-29T10:01:41;23.70;44.30
16172;DHT22;8192;53.596;10.166;2022-07-29T10:04:12;23.90;43.90
16172;DHT22;8192;53.596;10.166;2022-07-29T10:09:22;24.20;44.20
16172;DHT22;8192;53.596;10.166;2022-07-29T10:12:02;24.40;42.30
16172;DHT22;8192;53.596;10.166;2022-07-29T10:14:29;24.60;38.50
16172;DHT22;8192;53.596;10.166;2022-07-29T10:16:58;24.90;38.30
16172;DHT22;8192;53.596;10.166;2022-07-29T10:19:26;24.70;36.40
16172;DHT22;8192;53.596;10.166;2022-07-29T10:21:53;24.60;36.30
16172;DHT22;8192;53.596;10.166;2022-07-29T10:24:20;24.70;33.90
16172;DHT22;8192;53.596;10.166;2022-07-29T10:26:49;24.70;34.90
16172;DHT22;8192;53.596;10.166;2022-07-29T10:29:16;24.70;35.30
16172;DHT22;8192;53.596;10.166;2022-07-29T10:31:44;24.20;33.60
16172;DHT22;8192;53.596;10.166;2022-07-29T10:34:13;24.20;33.90
16172;DHT22;8192;53.596;10.166;2022-07-29T10:36:45;24.10;32.90
16172;DHT22;8192;53.596;10.166;2022-07-29T10:39:19;24.10;34.80
16172;DHT22;8192;53.596;10.166;2022-07-29T10:41:56;24.40;34.70
16172;DHT22;8192;53.596;10.166;2022-07-29T10:44:27;24.50;32.50
16172;DHT22;8192;53.596;10.166;2022-07-29T10:46:54;24.70;32.10
16172;DHT22;8192;53.596;10.166;2022-07-29T10:49:22;24.80;38.80
16172;DHT22;8192;53.596;10.166;2022-07-29T10:51:52;24.60;35.80
16172;DHT22;8192;53.596;10.166;2022-07-29T10:54:35;24.80;31.40
16172;DHT22;8192;53.596;10.166;2022-07-29T10:57:11;25.00;33.70
16172;DHT22;8192;53.596;10.166;2022-07-29T10:59:38;25.20;35.00
16172;DHT22;8192;53.596;10.166;2022-07-29T11:05:01;25.20;28.60
16172;DHT22;8192;53.596;10.166;2022-07-29T11:07:29;25.10;30.00
16172;DHT22;8192;53.596;10.166;2022-07-29T11:12:57;24.80;29.30
16172;DHT22;8192;53.596;10.166;2022-07-29T11:15:24;25.20;31.00
16172;DHT22;8192;53.596;10.166;2022-07-29T11:18:03;25.30;27.10
16172;DHT22;8192;53.596;10.166;2022-07-29T11:20:36;25.00;28.60
16172;DHT22;8192;53.596;10.166;2022-07-29T11:23:25;25.00;26.60
16172;DHT22;8192;53.596;10.166;2022-07-29T11:28:48;25.10;25.50
16172;DHT22;8192;53.596;10.166;2022-07-29T11:31:16;25.50;25.00
16172;DHT22;8192;53.596;10.166;2022-07-29T11:33:45;25.70;27.00
16172;DHT22;8192;53.596;10.166;2022-07-29T11:36:20;26.20;25.60
16172;DHT22;8192;53.596;10.166;2022-07-29T11:38:48;26.50;25.70
16172;DHT22;8192;53.596;10.166;2022-07-29T11:47:26;25.70;22.00
16172;DHT22;8192;53.596;10.166;2022-07-29T11:52:41;26.10;23.90
16172;DHT22;8192;53.596;10.166;2022-07-29T11:55:11;26.20;21.70
16172;DHT22;8192;53.596;10.166;2022-07-29T11:57:45;26.40;20.10
16172;DHT22;8192;53.596;10.166;2022-07-29T12:00:13;26.40;22.10
16172;DHT22;8192;53.596;10.166;2022-07-29T12:02:48;25.90;21.90
16172;DHT22;8192;53.596;10.166;2022-07-29T12:05:16;25.90;20.80
16172;DHT22;8192;53.596;10.166;2022-07-29T12:07:43;26.20;19.80
16172;DHT22;8192;53.596;10.166;2022-07-29T12:10:15;26.40;19.70
16172;DHT22;8192;53.596;10.166;2022-07-29T12:12:51;26.30;18.70
16172;DHT22;8192;53.596;10.166;2022-07-29T12:15:21;26.20;21.40
16172;DHT22;8192;53.596;10.166;2022-07-29T12:17:52;26.50;20.40
16172;DHT22;8192;53.596;10.166;2022-07-29T12:20:23;26.70;19.70
16172;DHT22;8192;53.596;10.166;2022-07-29T12:22:50;26.50;19.40
16172;DHT22;8192;53.596;10.166;2022-07-29T12:25:19;26.60;19.40
16172;DHT22;8192;53.596;10.166;2022-07-29T12:30:48;26.60;17.30
16172;DHT22;8192;53.596;10.166;2022-07-29T12:33:22;26.60;16.80
16172;DHT22;8192;53.596;10.166;2022-07-29T12:35:54;26.70;16.20
16172;DHT22;8192;53.596;10.166;2022-07-29T12:40:49;26.70;15.50
16172;DHT22;8192;53.596;10.166;2022-07-29T12:43:17;26.30;13.20
16172;DHT22;8192;53.596;10.166;2022-07-29T12:45:45;25.90;13.50
16172;DHT22;8192;53.596;10.166;2022-07-29T12:48:15;25.90;11.80
16172;DHT22;8192;53.596;10.166;2022-07-29T12:50:53;26.00;12.50
16172;DHT22;8192;53.596;10.166;2022-07-29T12:53:21;26.30;15.10
16172;DHT22;8192;53.596;10.166;2022-07-29T12:55:48;26.50;11.20
16172;DHT22;8192;53.596;10.166;2022-07-29T13:01:12;26.30;12.80
16172;DHT22;8192;53.596;10.166;2022-07-29T13:03:47;26.50;13.60
16172;DHT22;8192;53.596;10.166;2022-07-29T13:06:35;26.60;11.80
16172;DHT22;8192;53.596;10.166;2022-07-29T13:09:06;26.70;10.10
16172;DHT22;8192;53.596;10.166;2022-07-29T13:11:34;27.00;9.70
16172;DHT22;8192;53.596;10.166;2022-07-29T13:14:01;27.00;8.30
16172;DHT22;8192;53.596;10.166;2022-07-29T13:16:29;26.90;9.30
16172;DHT22;8192;53.596;10.166;2022-07-29T13:19:05;26.40;19.80
16172;DHT22;8192;53.596;10.166;2022-07-29T13:21:32;26.20;23.90
16172;DHT22;8192;53.596;10.166;2022-07-29T13:24:00;26.00;26.60
16172;DHT22;8192;53.596;10.166;2022-07-29T13:26:27;25.80;26.60
16172;DHT22;8192;53.596;10.166;2022-07-29T13:28:54;25.70;28.20
16172;DHT22;8192;53.596;10.166;2022-07-29T13:31:35;25.80;29.20
16172;DHT22;8192;53.596;10.166;2022-07-29T13:34:04;26.10;28.10
16172;DHT22;8192;53.596;10.166;2022-07-29T13:36:32;25.90;26.20
16172;DHT22;8192;53.596;10.166;2022-07-29T13:39:03;26.00;25.70
16172;DHT22;8192;53.596;10.166;2022-07-29T13:41:30;25.90;26.80
16172;DHT22;8192;53.596;10.166;2022-07-29T13:43:57;25.70;25.00
16172;DHT22;8192;53.596;10.166;2022-07-29T13:46:25;25.40;26.00
16172;DHT22;8192;53.596;10.166;2022-07-29T13:48:52;25.00;27.90
16172;DHT22;8192;53.596;10.166;2022-07-29T13:51:18;24.70;29.30
16172;DHT22;8192;53.596;10.166;2022-07-29T13:53:45;25.10;30.00
16172;DHT22;8192;53.596;10.166;2022-07-29T13:56:13;25.80;28.60
16172;DHT22;8192;53.596;10.166;2022-07-29T13:58:40;26.20;27.20
16172;DHT22;8192;53.596;10.166;2022-07-29T14:01:07;26.50;25.20
16172;DHT22;8192;53.596;10.166;2022-07-29T14:03:34;26.30;24.50
16172;DHT22;8192;53.596;10.166;2022-07-29T14:06:02;26.20;25.90
16172;DHT22;8192;53.596;10.166;2022-07-29T14:08:29;25.90;26.00
16172;DHT22;8192;53.596;10.166;2022-07-29T14:10:56;25.90;26.30
16172;DHT22;8192;53.596;10.166;2022-07-29T14:13:24;25.40;26.60
16172;DHT22;8192;53.596;10.166;2022-07-29T14:15:51;24.90;27.40
16172;DHT22;8192;53.596;10.166;2022-07-29T14:18:20;24.70;28.20
16172;DHT22;8192;53.596;10.166;2022-07-29T14:20:47;24.50;26.20
16172;DHT22;8192;53.596;10.166;2022-07-29T14:26:17;24.30;29.50
16172;DHT22;8192;53.596;10.166;2022-07-29T14:28:54;24.50;30.20
16172;DHT22;8192;53.596;10.166;2022-07-29T14:31:21;24.60;28.30
16172;DHT22;8192;53.596;10.166;2022-07-29T14:33:47;24.80;29.50
16172;DHT22;8192;53.596;10.166;2022-07-29T14:36:14;24.80;27.30
16172;DHT22;8192;53.596;10.166;2022-07-29T14:38:41;24.90;29.40
16172;DHT22;8192;53.596;10.166;2022-07-29T14:41:08;24.70;28.80
16172;DHT22;8192;53.596;10.166;2022-07-29T14:43:35;24.50;30.50
16172;DHT22;8192;53.596;10.166;2022-07-29T14:46:03;24.20;32.90
16172;DHT22;8192;53.596;10.166;2022-07-29T14:48:30;24.10;34.00
16172;DHT22;8192;53.596;10.166;2022-07-29T14:50:57;23.90;35.50
16172;DHT22;8192;53.596;10.166;2022-07-29T14:53:24;23.70;34.90
16172;DHT22;8192;53.596;10.166;2022-07-29T14:55:51;23.60;36.40
16172;DHT22;8192;53.596;10.166;2022-07-29T14:58:18;23.60;35.60
16172;DHT22;8192;53.596;10.166;2022-07-29T15:00:46;23.60;35.90
16172;DHT22;8192;53.596;10.166;2022-07-29T15:03:14;23.80;35.10
16172;DHT22;8192;53.596;10.166;2022-07-29T15:08:19;24.50;31.30
16172;DHT22;8192;53.596;10.166;2022-07-29T15:13:31;25.50;35.30
16172;DHT22;8192;53.596;10.166;2022-07-29T15:15:59;26.00;30.50
16172;DHT22;8192;53.596;10.166;2022-07-29T15:21:30;26.40;26.70
16172;DHT22;8192;53.596;10.166;2022-07-29T15:23:57;26.40;24.80
16172;DHT22;8192;53.596;10.166;2022-07-29T15:26:24;26.20;24.60
16172;DHT22;8192;53.596;10.166;2022-07-29T15:28:51;26.00;25.00
16172;DHT22;8192;53.596;10.166;2022-07-29T15:31:17;25.90;25.60
16172;DHT22;8192;53.596;10.166;2022-07-29T15:33:45;25.90;25.60
16172;DHT22;8192;53.596;10.166;2022-07-29T15:36:12;25.60;25.90
16172;DHT22;8192;53.596;10.166;2022-07-29T15:38:40;25.50;27.30
16172;DHT22;8192;53.596;10.166;2022-07-29T15:41:13;25.70;27.40
16172;DHT22;8192;53.596;10.166;2022-07-29T15:43:40;25.70;26.90
16172;DHT22;8192;53.596;10.166;2022-07-29T15:46:10;25.50;27.70
16172;DHT22;8192;53.596;10.166;2022-07-29T15:48:56;25.40;27.90
16172;DHT22;8192;53.596;10.166;2022-07-29T15:51:26;25.10;26.90
16172;DHT22;8192;53.596;10.166;2022-07-29T15:53:54;24.60;29.00
16172;DHT22;8192;53.596;10.166;2022-07-29T15:56:21;24.40;30.60
16172;DHT22;8192;53.596;10.166;2022-07-29T15:59:04;24.10;32.10
16172;DHT22;8192;53.596;10.166;2022-07-29T16:01:30;24.40;33.80
16172;DHT22;8192;53.596;10.166;2022-07-29T16:03:57;25.20;29.70
16172;DHT22;8192;53.596;10.166;2022-07-29T16:06:24;25.60;29.20
16172;DHT22;8192;53.596;10.166;2022-07-29T16:08:51;25.50;26.80
16172;DHT22;8192;53.596;10.166;2022-07-29T16:11:21;25.40;27.90
16172;DHT22;8192;53.596;10.166;2022-07-29T16:13:48;25.50;27.60
16172;DHT22;8192;53.596;10.166;2022-07-29T16:16:17;25.80;27.20
16172;DHT22;8192;53.596;10.166;2022-07-29T16:18:44;25.70;27.00
16172;DHT22;8192;53.596;10.166;2022-07-29T16:21:11;25.50;28.30
16172;DHT22;8192;53.596;10.166;2022-07-29T16:23:38;25.20;30.00
16172;DHT22;8192;53.596;10.166;2022-07-29T16:26:05;25.20;30.00
16172;DHT22;8192;53.596;10.166;2022-07-29T16:28:34;24.90;29.60
16172;DHT22;8192;53.596;10.166;2022-07-29T16:31:01;24.40;33.20
16172;DHT22;8192;53.596;10.166;2022-07-29T16:33:28;24.10;37.10
16172;DHT22;8192;53.596;10.166;2022-07-29T16:35:56;23.90;37.70